createdAt,value
2017-01-30T00:00:16.881Z,958.17
2017-01-30T00:01:12.106Z,958.15
2017-01-30T00:02:13.348Z,958.17
2017-01-30T00:03:11.522Z,958.17
2017-01-30T00:04:13.129Z,958.17
2017-01-30T00:05:12.192Z,958.20
2017-01-30T00:06:12.799Z,958.21
2017-01-30T00:07:13.157Z,958.17
2017-01-30T00:08:13.129Z,958.20
2017-01-30T00:09:12.969Z,958.17
2017-01-30T00:10:12.028Z,958.15
2017-01-30T00:11:12.470Z,958.16
2017-01-30T00:12:12.922Z,958.14
2017-01-30T00:13:09.300Z,958.16
2017-01-30T00:14:12.711Z,958.09
2017-01-30T00:15:12.952Z,958.15
2017-01-30T00:16:12.522Z,958.15
2017-01-30T00:17:12.870Z,958.17
2017-01-30T00:18:12.128Z,958.16
2017-01-30T00:19:13.686Z,958.16
2017-01-30T00:20:13.395Z,958.14
2017-01-30T00:21:13.444Z,958.12
2017-01-30T00:22:12.475Z,958.12
2017-01-30T00:23:15.374Z,958.09
2017-01-30T00:24:12.720Z,958.15
2017-01-30T00:25:11.875Z,958.09
2017-01-30T00:26:12.036Z,958.09
2017-01-30T00:27:11.094Z,958.08
2017-01-30T00:28:12.897Z,958.07
2017-01-30T00:29:12.550Z,958.07
2017-01-30T00:30:12.656Z,958.09
2017-01-30T00:31:12.370Z,958.07
2017-01-30T00:32:10.484Z,958.08
2017-01-30T00:33:12.535Z,958.02
2017-01-30T00:34:12.731Z,958.05
2017-01-30T00:35:14.499Z,958.02
2017-01-30T00:36:12.472Z,958.03
2017-01-30T00:37:13.055Z,958.07
2017-01-30T00:38:12.497Z,958.07
2017-01-30T00:39:12.725Z,958.08
2017-01-30T00:40:12.964Z,958.06
2017-01-30T00:41:11.975Z,958.05
2017-01-30T00:42:12.083Z,958.09
2017-01-30T00:43:12.531Z,958.06
2017-01-30T00:44:15.949Z,958.09
2017-01-30T00:45:13.519Z,958.09
2017-01-30T00:46:13.206Z,958.06
2017-01-30T00:47:12.325Z,958.06
2017-01-30T00:48:12.951Z,958.06
2017-01-30T00:49:12.552Z,958.04
2017-01-30T00:50:12.676Z,958.05
2017-01-30T00:51:13.641Z,958.02
2017-01-30T00:52:13.541Z,958.00
2017-01-30T00:53:09.799Z,958.01
2017-01-30T00:54:14.574Z,957.99
2017-01-30T00:55:12.862Z,957.98
2017-01-30T00:56:11.933Z,957.97
2017-01-30T00:57:11.940Z,958.01
2017-01-30T00:58:17.945Z,957.96
2017-01-30T00:59:13.875Z,957.92
2017-01-30T01:00:12.646Z,957.95
2017-01-30T01:01:12.605Z,957.94
2017-01-30T01:02:12.799Z,957.92
2017-01-30T01:03:12.395Z,957.93
2017-01-30T01:04:12.399Z,957.89
2017-01-30T01:05:15.489Z,957.90
2017-01-30T01:06:12.800Z,957.86
2017-01-30T01:07:12.909Z,957.89
2017-01-30T01:08:12.563Z,957.89
2017-01-30T01:09:13.424Z,957.86
2017-01-30T01:10:12.453Z,957.90
2017-01-30T01:11:13.251Z,957.90
2017-01-30T01:12:12.282Z,957.88
2017-01-30T01:13:12.333Z,957.90
2017-01-30T01:14:12.263Z,957.92
2017-01-30T01:15:12.721Z,957.91
2017-01-30T01:16:12.816Z,957.90
2017-01-30T01:17:12.669Z,957.92
2017-01-30T01:18:13.439Z,957.88
2017-01-30T01:19:12.534Z,957.91
2017-01-30T01:20:12.665Z,957.90
2017-01-30T01:21:14.752Z,957.93
2017-01-30T01:22:14.289Z,957.93
2017-01-30T01:23:12.472Z,957.89
2017-01-30T01:24:12.468Z,957.85
2017-01-30T01:25:13.146Z,957.85
2017-01-30T01:26:15.662Z,957.88
2017-01-30T01:27:13.278Z,957.86
2017-01-30T01:28:12.429Z,957.85
2017-01-30T01:29:13.051Z,957.85
2017-01-30T01:30:13.710Z,957.80
2017-01-30T01:31:13.397Z,957.77
2017-01-30T01:32:12.956Z,957.79
2017-01-30T01:33:12.897Z,957.79
2017-01-30T01:34:11.917Z,957.72
2017-01-30T01:35:12.452Z,957.72
2017-01-30T01:36:12.520Z,957.75
2017-01-30T01:37:13.747Z,957.73
2017-01-30T01:38:12.814Z,957.65
2017-01-30T01:39:12.633Z,957.64
2017-01-30T01:40:12.716Z,957.63
2017-01-30T01:41:12.008Z,957.61
2017-01-30T01:42:13.338Z,957.61
2017-01-30T01:43:12.374Z,957.60
2017-01-30T01:44:13.087Z,957.57
2017-01-30T01:45:12.104Z,957.60
2017-01-30T01:46:12.235Z,957.56
2017-01-30T01:47:16.441Z,957.56
2017-01-30T01:48:13.960Z,957.57
2017-01-30T01:49:12.395Z,957.57
2017-01-30T01:50:13.275Z,957.56
2017-01-30T01:51:12.613Z,957.59
2017-01-30T01:52:13.259Z,957.60
2017-01-30T01:53:12.425Z,957.57
2017-01-30T01:54:13.186Z,957.56
2017-01-30T01:55:12.493Z,957.55
2017-01-30T01:56:13.357Z,957.58
2017-01-30T01:57:12.411Z,957.57
2017-01-30T01:58:12.564Z,957.59
2017-01-30T01:59:12.675Z,957.57
2017-01-30T02:00:12.872Z,957.60
2017-01-30T02:01:12.046Z,957.60
2017-01-30T02:02:12.432Z,957.62
2017-01-30T02:03:12.547Z,957.58
2017-01-30T02:04:12.611Z,957.58
2017-01-30T02:05:13.503Z,957.63
2017-01-30T02:06:10.861Z,957.53
2017-01-30T02:07:13.341Z,957.54
2017-01-30T02:08:15.568Z,957.48
2017-01-30T02:09:13.145Z,957.55
2017-01-30T02:10:12.829Z,957.52
2017-01-30T02:11:12.052Z,957.52
2017-01-30T02:12:10.283Z,957.42
2017-01-30T02:13:13.291Z,957.44
2017-01-30T02:14:13.961Z,957.40
2017-01-30T02:15:13.046Z,957.40
2017-01-30T02:16:13.293Z,957.37
2017-01-30T02:17:13.012Z,957.40
2017-01-30T02:18:13.910Z,957.44
2017-01-30T02:19:12.047Z,957.44
2017-01-30T02:20:10.998Z,957.45
2017-01-30T02:21:13.029Z,957.37
2017-01-30T02:22:12.228Z,957.38
2017-01-30T02:23:11.538Z,957.36
2017-01-30T02:24:13.487Z,957.39
2017-01-30T02:25:12.965Z,957.40
2017-01-30T02:26:12.207Z,957.37
2017-01-30T02:27:13.207Z,957.30
2017-01-30T02:28:12.409Z,957.32
2017-01-30T02:29:15.565Z,957.33
2017-01-30T02:30:13.257Z,957.31
2017-01-30T02:31:12.618Z,957.36
2017-01-30T02:32:12.719Z,957.32
2017-01-30T02:33:11.963Z,957.34
2017-01-30T02:34:12.088Z,957.32
2017-01-30T02:35:12.187Z,957.32
2017-01-30T02:36:12.857Z,957.32
2017-01-30T02:37:12.160Z,957.26
2017-01-30T02:38:12.224Z,957.20
2017-01-30T02:39:13.016Z,957.19
2017-01-30T02:40:12.227Z,957.18
2017-01-30T02:41:12.780Z,957.17
2017-01-30T02:42:11.871Z,957.14
2017-01-30T02:43:12.133Z,957.14
2017-01-30T02:44:12.841Z,957.15
2017-01-30T02:45:14.075Z,957.16
2017-01-30T02:46:12.629Z,957.13
2017-01-30T02:47:14.668Z,957.17
2017-01-30T02:48:11.426Z,957.17
2017-01-30T02:49:12.517Z,957.11
2017-01-30T02:50:13.798Z,957.13
2017-01-30T02:51:12.251Z,957.15
2017-01-30T02:52:12.867Z,957.13
2017-01-30T02:53:13.080Z,957.11
2017-01-30T02:54:12.285Z,957.08
2017-01-30T02:55:12.591Z,957.10
2017-01-30T02:56:13.616Z,957.14
2017-01-30T02:57:14.218Z,957.15
2017-01-30T02:58:09.474Z,957.18
2017-01-30T02:59:13.707Z,957.19
2017-01-30T03:00:16.034Z,957.23
2017-01-30T03:01:12.131Z,957.19
2017-01-30T03:02:12.915Z,957.19
2017-01-30T03:03:12.073Z,957.21
2017-01-30T03:04:12.357Z,957.17
2017-01-30T03:05:13.482Z,957.19
2017-01-30T03:06:13.901Z,957.14
2017-01-30T03:07:14.072Z,957.17
2017-01-30T03:08:12.356Z,957.15
2017-01-30T03:09:13.107Z,957.21
2017-01-30T03:10:12.332Z,957.19
2017-01-30T03:11:15.292Z,957.17
2017-01-30T03:12:11.230Z,957.16
2017-01-30T03:13:12.373Z,957.16
2017-01-30T03:14:12.933Z,957.19
2017-01-30T03:15:12.263Z,957.19
2017-01-30T03:16:12.435Z,957.17
2017-01-30T03:17:12.642Z,957.15
2017-01-30T03:18:12.867Z,957.15
2017-01-30T03:19:10.935Z,957.13
2017-01-30T03:20:14.790Z,957.15
2017-01-30T03:21:12.011Z,957.13
2017-01-30T03:22:12.073Z,957.11
2017-01-30T03:23:13.901Z,957.08
2017-01-30T03:24:11.158Z,957.13
2017-01-30T03:25:12.529Z,957.10
2017-01-30T03:26:13.375Z,957.05
2017-01-30T03:27:12.541Z,957.10
2017-01-30T03:28:12.857Z,957.06
2017-01-30T03:29:12.032Z,957.04
2017-01-30T03:30:12.374Z,957.06
2017-01-30T03:31:13.082Z,957.07
2017-01-30T03:32:15.329Z,957.06
2017-01-30T03:33:12.581Z,957.09
2017-01-30T03:34:13.378Z,957.12
2017-01-30T03:35:12.904Z,957.16
2017-01-30T03:36:12.197Z,957.23
2017-01-30T03:37:13.358Z,957.19
2017-01-30T03:38:13.160Z,957.21
2017-01-30T03:39:13.148Z,957.19
2017-01-30T03:40:13.528Z,957.16
2017-01-30T03:41:10.088Z,957.17
2017-01-30T03:42:11.484Z,957.17
2017-01-30T03:43:11.300Z,957.19
2017-01-30T03:44:12.857Z,957.21
2017-01-30T03:45:12.191Z,957.19
2017-01-30T03:46:12.879Z,957.17
2017-01-30T03:47:12.014Z,957.15
2017-01-30T03:48:12.827Z,957.17
2017-01-30T03:49:12.617Z,957.15
2017-01-30T03:50:10.945Z,957.13
2017-01-30T03:51:14.981Z,957.02
2017-01-30T03:52:14.383Z,957.10
2017-01-30T03:53:13.793Z,957.09
2017-01-30T03:54:13.186Z,957.10
2017-01-30T03:55:12.738Z,957.11
2017-01-30T03:56:12.554Z,957.08
2017-01-30T03:57:13.120Z,957.13
2017-01-30T03:58:12.378Z,957.08
2017-01-30T03:59:12.687Z,957.03
2017-01-30T04:00:12.819Z,957.06
2017-01-30T04:01:12.062Z,957.07
2017-01-30T04:02:12.188Z,957.06
2017-01-30T04:03:12.891Z,957.07
2017-01-30T04:04:12.631Z,957.09
2017-01-30T04:05:14.977Z,957.06
2017-01-30T04:06:12.088Z,957.04
2017-01-30T04:07:12.807Z,957.01
2017-01-30T04:08:11.900Z,957.03
2017-01-30T04:09:12.914Z,957.01
2017-01-30T04:10:13.890Z,957.06
2017-01-30T04:11:12.957Z,957.00
2017-01-30T04:12:13.497Z,957.05
2017-01-30T04:13:13.022Z,957.04
2017-01-30T04:14:13.342Z,957.06
2017-01-30T04:15:12.678Z,957.04
2017-01-30T04:16:14.823Z,957.07
2017-01-30T04:17:12.662Z,957.07
2017-01-30T04:18:12.756Z,957.10
2017-01-30T04:19:12.107Z,957.08
2017-01-30T04:20:14.574Z,957.09
2017-01-30T04:21:13.948Z,957.08
2017-01-30T04:22:13.309Z,957.08
2017-01-30T04:23:12.879Z,957.12
2017-01-30T04:24:13.588Z,957.12
2017-01-30T04:25:13.156Z,957.05
2017-01-30T04:26:12.820Z,957.07
2017-01-30T04:27:11.814Z,957.08
2017-01-30T04:28:12.476Z,957.06
2017-01-30T04:29:14.061Z,957.03
2017-01-30T04:30:12.444Z,957.04
2017-01-30T04:31:15.522Z,957.06
2017-01-30T04:32:13.250Z,957.00
2017-01-30T04:33:13.194Z,957.01
2017-01-30T04:34:12.307Z,956.99
2017-01-30T04:35:12.420Z,956.97
2017-01-30T04:36:13.188Z,956.99
2017-01-30T04:37:13.230Z,956.93
2017-01-30T04:38:12.277Z,956.96
2017-01-30T04:39:12.338Z,956.95
2017-01-30T04:40:12.615Z,956.96
2017-01-30T04:41:13.548Z,956.96
2017-01-30T04:42:13.743Z,956.99
2017-01-30T04:43:12.919Z,956.96
2017-01-30T04:44:12.040Z,956.95
2017-01-30T04:45:12.931Z,956.96
2017-01-30T04:46:11.028Z,956.93
2017-01-30T04:47:12.998Z,956.93
2017-01-30T04:48:15.645Z,956.92
2017-01-30T04:49:12.747Z,956.90
2017-01-30T04:50:14.153Z,956.89
2017-01-30T04:51:12.500Z,956.89
2017-01-30T04:52:14.474Z,956.88
2017-01-30T04:53:13.108Z,956.90
2017-01-30T04:54:09.525Z,956.90
2017-01-30T04:55:13.084Z,956.90
2017-01-30T04:56:12.951Z,956.89
2017-01-30T04:57:12.820Z,956.86
2017-01-30T04:58:13.906Z,956.83
2017-01-30T04:59:13.366Z,956.87
2017-01-30T05:00:12.752Z,956.85
2017-01-30T05:01:11.989Z,956.82
2017-01-30T05:02:12.750Z,956.84
2017-01-30T05:03:14.619Z,956.80
2017-01-30T05:04:12.917Z,956.82
2017-01-30T05:05:12.601Z,956.84
2017-01-30T05:06:14.311Z,956.81
2017-01-30T05:07:17.186Z,956.86
2017-01-30T05:08:13.188Z,956.85
2017-01-30T05:09:12.818Z,956.86
2017-01-30T05:10:09.637Z,956.85
2017-01-30T05:11:13.447Z,956.86
2017-01-30T05:12:13.028Z,956.87
2017-01-30T05:13:12.370Z,956.90
2017-01-30T05:14:12.519Z,956.85
2017-01-30T05:15:13.497Z,956.88
2017-01-30T05:16:13.429Z,956.85
2017-01-30T05:17:13.206Z,956.83
2017-01-30T05:18:13.299Z,956.83
2017-01-30T05:19:14.020Z,956.79
2017-01-30T05:20:15.046Z,956.82
2017-01-30T05:21:10.421Z,956.78
2017-01-30T05:22:12.454Z,956.80
2017-01-30T05:23:12.624Z,956.76
2017-01-30T05:24:12.306Z,956.82
2017-01-30T05:25:16.399Z,956.83
2017-01-30T05:26:16.208Z,956.85
2017-01-30T05:27:12.889Z,956.83
2017-01-30T05:28:12.532Z,956.81
2017-01-30T05:29:14.702Z,956.82
2017-01-30T05:30:13.814Z,956.78
2017-01-30T05:31:10.120Z,956.83
2017-01-30T05:32:12.204Z,956.76
2017-01-30T05:33:12.897Z,956.75
2017-01-30T05:34:12.828Z,956.76
2017-01-30T05:35:12.627Z,956.76
2017-01-30T05:36:14.444Z,956.84
2017-01-30T05:37:13.293Z,956.84
2017-01-30T05:38:12.488Z,956.82
2017-01-30T05:39:13.195Z,956.80
2017-01-30T05:40:12.336Z,956.81
2017-01-30T05:41:13.198Z,956.79
2017-01-30T05:42:13.987Z,956.80
2017-01-30T05:43:16.213Z,956.77
2017-01-30T05:44:12.456Z,956.77
2017-01-30T05:45:13.514Z,956.75
2017-01-30T05:46:12.677Z,956.72
2017-01-30T05:47:15.404Z,956.74
2017-01-30T05:48:13.248Z,956.72
2017-01-30T05:49:12.367Z,956.71
2017-01-30T05:50:14.439Z,956.77
2017-01-30T05:51:10.654Z,956.81
2017-01-30T05:52:11.940Z,956.80
2017-01-30T05:53:13.917Z,956.77
2017-01-30T05:54:12.373Z,956.77
2017-01-30T05:55:14.009Z,956.74
2017-01-30T05:56:13.737Z,956.72
2017-01-30T05:57:13.783Z,956.70
2017-01-30T05:58:11.974Z,956.69
2017-01-30T05:59:13.575Z,956.69
2017-01-30T06:00:15.146Z,956.70
2017-01-30T06:01:16.318Z,956.71
2017-01-30T06:02:14.824Z,956.70
2017-01-30T06:03:12.927Z,956.69
2017-01-30T06:04:11.090Z,956.73
2017-01-30T06:05:12.566Z,956.72
2017-01-30T06:06:11.071Z,956.74
2017-01-30T06:07:13.264Z,956.71
2017-01-30T06:08:12.359Z,956.74
2017-01-30T06:09:15.066Z,956.72
2017-01-30T06:10:13.221Z,956.74
2017-01-30T06:11:12.357Z,956.68
2017-01-30T06:12:13.009Z,956.68
2017-01-30T06:13:13.446Z,956.65
2017-01-30T06:14:13.174Z,956.61
2017-01-30T06:15:13.225Z,956.59
2017-01-30T06:16:12.481Z,956.59
2017-01-30T06:17:13.303Z,956.58
2017-01-30T06:18:12.447Z,956.54
2017-01-30T06:19:17.435Z,956.58
2017-01-30T06:20:11.601Z,956.55
2017-01-30T06:21:12.949Z,956.53
2017-01-30T06:22:12.759Z,956.54
2017-01-30T06:23:12.395Z,956.53
2017-01-30T06:24:12.896Z,956.55
2017-01-30T06:25:12.524Z,956.45
2017-01-30T06:26:12.733Z,956.53
2017-01-30T06:27:13.271Z,956.41
2017-01-30T06:28:12.495Z,956.46
2017-01-30T06:29:16.519Z,956.45
2017-01-30T06:30:13.296Z,956.43
2017-01-30T06:31:12.605Z,956.46
2017-01-30T06:32:14.101Z,956.50
2017-01-30T06:33:12.793Z,956.49
2017-01-30T06:34:09.980Z,956.51
2017-01-30T06:35:12.897Z,956.50
2017-01-30T06:36:15.310Z,956.49
2017-01-30T06:37:12.753Z,956.50
2017-01-30T06:38:12.716Z,956.46
2017-01-30T06:39:12.899Z,956.44
2017-01-30T06:40:15.739Z,956.46
2017-01-30T06:41:14.702Z,956.40
2017-01-30T06:42:13.824Z,956.40
2017-01-30T06:43:12.843Z,956.39
2017-01-30T06:44:12.936Z,956.40
2017-01-30T06:45:12.125Z,956.39
2017-01-30T06:46:12.884Z,956.38
2017-01-30T06:47:12.098Z,956.35
2017-01-30T06:48:13.147Z,956.39
2017-01-30T06:49:12.363Z,956.35
2017-01-30T06:50:12.580Z,956.33
2017-01-30T06:51:12.807Z,956.34
2017-01-30T06:52:12.371Z,956.37
2017-01-30T06:53:15.556Z,956.35
2017-01-30T06:54:11.408Z,956.35
2017-01-30T06:55:13.656Z,956.36
2017-01-30T06:56:13.400Z,956.32
2017-01-30T06:57:16.047Z,956.37
2017-01-30T06:58:12.799Z,956.32
2017-01-30T06:59:12.651Z,956.37
2017-01-30T07:00:13.540Z,956.35
2017-01-30T07:01:14.668Z,956.38
2017-01-30T07:02:11.377Z,956.38
2017-01-30T07:03:13.344Z,956.37
2017-01-30T07:04:12.497Z,956.43
2017-01-30T07:05:13.466Z,956.45
2017-01-30T07:06:12.545Z,956.43
2017-01-30T07:07:13.366Z,956.46
2017-01-30T07:08:12.996Z,956.46
2017-01-30T07:09:12.899Z,956.47
2017-01-30T07:10:14.920Z,956.48
2017-01-30T07:11:13.010Z,956.45
2017-01-30T07:12:12.113Z,956.44
2017-01-30T07:13:14.088Z,956.41
2017-01-30T07:14:12.364Z,956.45
2017-01-30T07:15:12.594Z,956.40
2017-01-30T07:16:13.514Z,956.39
2017-01-30T07:17:13.293Z,956.39
2017-01-30T07:18:11.233Z,956.36
2017-01-30T07:19:12.357Z,956.35
2017-01-30T07:20:12.865Z,956.30
2017-01-30T07:21:12.066Z,956.26
2017-01-30T07:22:13.099Z,956.25
2017-01-30T07:23:12.663Z,956.22
2017-01-30T07:24:11.488Z,956.22
2017-01-30T07:25:11.933Z,956.23
2017-01-30T07:26:12.958Z,956.18
2017-01-30T07:27:13.749Z,956.19
2017-01-30T07:28:13.482Z,956.22
2017-01-30T07:29:15.287Z,956.17
2017-01-30T07:30:13.244Z,956.13
2017-01-30T07:31:12.959Z,956.13
2017-01-30T07:32:12.248Z,956.10
2017-01-30T07:33:12.647Z,956.10
2017-01-30T07:34:13.286Z,956.11
2017-01-30T07:35:13.594Z,956.08
2017-01-30T07:36:13.430Z,956.08
2017-01-30T07:37:12.904Z,956.03
2017-01-30T07:38:12.139Z,955.98
2017-01-30T07:39:12.339Z,955.98
2017-01-30T07:40:12.926Z,955.96
2017-01-30T07:41:10.791Z,955.96
2017-01-30T07:42:12.115Z,955.91
2017-01-30T07:43:12.932Z,955.88
2017-01-30T07:44:13.106Z,955.89
2017-01-30T07:45:13.191Z,955.88
2017-01-30T07:46:16.456Z,955.88
2017-01-30T07:47:13.065Z,955.88
2017-01-30T07:48:12.463Z,955.90
2017-01-30T07:49:12.873Z,955.87
2017-01-30T07:50:13.158Z,955.90
2017-01-30T07:51:12.806Z,955.90
2017-01-30T07:52:11.980Z,955.86
2017-01-30T07:53:12.762Z,955.87
2017-01-30T07:54:12.120Z,955.87
2017-01-30T07:55:13.006Z,955.87
2017-01-30T07:56:12.317Z,955.84
2017-01-30T07:57:12.921Z,955.84
2017-01-30T07:58:12.202Z,955.83
2017-01-30T07:59:10.965Z,955.83
2017-01-30T08:00:12.656Z,955.79
2017-01-30T08:01:12.851Z,955.79
2017-01-30T08:02:12.600Z,955.74
2017-01-30T08:03:16.176Z,955.74
2017-01-30T08:04:10.550Z,955.75
2017-01-30T08:05:12.952Z,955.76
2017-01-30T08:06:11.212Z,955.70
2017-01-30T08:07:12.578Z,955.73
2017-01-30T08:08:13.233Z,955.70
2017-01-30T08:09:13.023Z,955.75
2017-01-30T08:10:12.445Z,955.73
2017-01-30T08:11:12.542Z,955.68
2017-01-30T08:12:12.668Z,955.68
2017-01-30T08:13:13.419Z,955.68
2017-01-30T08:14:13.223Z,955.68
2017-01-30T08:15:14.040Z,955.65
2017-01-30T08:16:12.705Z,955.74
2017-01-30T08:17:14.950Z,955.71
2017-01-30T08:18:15.375Z,955.67
2017-01-30T08:19:12.609Z,955.61
2017-01-30T08:20:15.668Z,955.59
2017-01-30T08:21:12.956Z,955.62
2017-01-30T08:22:12.622Z,955.60
2017-01-30T08:23:11.641Z,955.56
2017-01-30T08:24:14.620Z,955.53
2017-01-30T08:25:12.719Z,955.50
2017-01-30T08:26:13.525Z,955.54
2017-01-30T08:27:13.588Z,955.55
2017-01-30T08:28:13.427Z,955.52
2017-01-30T08:29:12.617Z,955.56
2017-01-30T08:30:12.776Z,955.59
2017-01-30T08:31:11.990Z,955.51
2017-01-30T08:32:13.180Z,955.50
2017-01-30T08:33:12.269Z,955.50
2017-01-30T08:34:12.391Z,955.49
2017-01-30T08:35:14.775Z,955.57
2017-01-30T08:36:12.090Z,955.58
2017-01-30T08:37:14.445Z,955.56
2017-01-30T08:38:12.879Z,955.52
2017-01-30T08:39:11.996Z,955.51
2017-01-30T08:40:12.217Z,955.50
2017-01-30T08:41:13.275Z,955.47
2017-01-30T08:42:12.383Z,955.47
2017-01-30T08:43:14.273Z,955.45
2017-01-30T08:44:12.315Z,955.54
2017-01-30T08:45:13.109Z,955.49
2017-01-30T08:46:12.644Z,955.51
2017-01-30T08:47:11.347Z,955.46
2017-01-30T08:48:12.882Z,955.47
2017-01-30T08:49:11.253Z,955.49
2017-01-30T08:50:13.633Z,955.46
2017-01-30T08:51:11.010Z,955.45
2017-01-30T08:52:15.069Z,955.48
2017-01-30T08:53:12.934Z,955.48
2017-01-30T08:54:11.077Z,955.55
2017-01-30T08:55:11.954Z,955.49
2017-01-30T08:56:12.084Z,955.51
2017-01-30T08:57:12.892Z,955.50
2017-01-30T08:58:11.995Z,955.48
2017-01-30T08:59:12.808Z,955.44
2017-01-30T09:00:12.144Z,955.46
2017-01-30T09:01:13.059Z,955.47
2017-01-30T09:02:12.241Z,955.51
2017-01-30T09:03:12.926Z,955.49
2017-01-30T09:04:12.114Z,955.44
2017-01-30T09:05:12.176Z,955.49
2017-01-30T09:06:13.991Z,955.42
2017-01-30T09:07:12.727Z,955.45
2017-01-30T09:08:12.510Z,955.46
2017-01-30T09:09:15.621Z,955.47
2017-01-30T09:10:13.033Z,955.44
2017-01-30T09:11:14.870Z,955.42
2017-01-30T09:12:14.067Z,955.43
2017-01-30T09:13:12.713Z,955.41
2017-01-30T09:14:12.908Z,955.41
2017-01-30T09:15:13.082Z,955.42
2017-01-30T09:16:13.857Z,955.40
2017-01-30T09:17:12.076Z,955.43
2017-01-30T09:18:12.147Z,955.40
2017-01-30T09:19:12.257Z,955.36
2017-01-30T09:20:12.979Z,955.41
2017-01-30T09:21:12.529Z,955.42
2017-01-30T09:22:12.596Z,955.38
2017-01-30T09:23:12.852Z,955.42
2017-01-30T09:24:09.743Z,955.44
2017-01-30T09:25:13.284Z,955.45
2017-01-30T09:26:16.459Z,955.44
2017-01-30T09:27:12.488Z,955.44
2017-01-30T09:28:13.221Z,955.43
2017-01-30T09:29:12.981Z,955.40
2017-01-30T09:30:12.222Z,955.42
2017-01-30T09:31:12.518Z,955.38
2017-01-30T09:32:15.776Z,955.36
2017-01-30T09:33:12.009Z,955.40
2017-01-30T09:34:13.806Z,955.36
2017-01-30T09:35:12.756Z,955.35
2017-01-30T09:36:12.578Z,955.32
2017-01-30T09:37:13.351Z,955.36
2017-01-30T09:38:13.044Z,955.36
2017-01-30T09:39:12.209Z,955.36
2017-01-30T09:40:12.926Z,955.36
2017-01-30T09:41:10.991Z,955.42
2017-01-30T09:42:13.196Z,955.36
2017-01-30T09:43:13.259Z,955.33
2017-01-30T09:44:13.544Z,955.30
2017-01-30T09:45:11.488Z,955.33
2017-01-30T09:46:13.718Z,955.29
2017-01-30T09:47:12.141Z,955.31
2017-01-30T09:48:12.210Z,955.30
2017-01-30T09:49:12.380Z,955.28
2017-01-30T09:50:12.961Z,955.30
2017-01-30T09:51:12.796Z,955.26
2017-01-30T09:52:11.076Z,955.28
2017-01-30T09:53:15.795Z,955.32
2017-01-30T09:54:12.018Z,955.33
2017-01-30T09:55:12.227Z,955.30
2017-01-30T09:56:13.035Z,955.27
2017-01-30T09:57:11.193Z,955.29
2017-01-30T09:58:17.105Z,955.26
2017-01-30T09:59:13.094Z,955.28
2017-01-30T10:00:12.307Z,955.27
2017-01-30T10:01:12.643Z,955.23
2017-01-30T10:02:13.488Z,955.22
2017-01-30T10:03:10.209Z,955.21
2017-01-30T10:04:10.531Z,955.20
2017-01-30T10:05:12.702Z,955.21
2017-01-30T10:06:13.367Z,955.20
2017-01-30T10:07:12.678Z,955.23
2017-01-30T10:08:13.918Z,955.22
2017-01-30T10:09:11.947Z,955.19
2017-01-30T10:10:12.849Z,955.20
2017-01-30T10:11:11.811Z,955.32
2017-01-30T10:12:12.272Z,955.50
2017-01-30T10:13:15.684Z,955.50
2017-01-30T10:14:13.717Z,955.57
2017-01-30T10:15:12.998Z,955.43
2017-01-30T10:16:12.854Z,955.28
2017-01-30T10:17:13.182Z,955.14
2017-01-30T10:18:12.399Z,955.11
2017-01-30T10:19:13.068Z,955.13
2017-01-30T10:20:12.309Z,955.26
2017-01-30T10:21:13.210Z,955.24
2017-01-30T10:22:12.835Z,955.30
2017-01-30T10:23:12.555Z,955.41
2017-01-30T10:24:14.406Z,955.34
2017-01-30T10:25:13.340Z,955.33
2017-01-30T10:26:13.114Z,955.25
2017-01-30T10:27:12.846Z,955.25
2017-01-30T10:28:12.725Z,955.22
2017-01-30T10:29:13.481Z,955.22
2017-01-30T10:30:16.085Z,955.17
2017-01-30T10:31:12.406Z,955.15
2017-01-30T10:32:12.680Z,955.08
2017-01-30T10:33:12.692Z,955.10
2017-01-30T10:34:15.405Z,955.09
2017-01-30T10:35:12.762Z,955.04
2017-01-30T10:36:12.008Z,955.01
2017-01-30T10:37:12.747Z,955.00
2017-01-30T10:38:12.935Z,954.98
2017-01-30T10:39:12.165Z,955.02
2017-01-30T10:40:12.949Z,954.98
2017-01-30T10:41:11.909Z,954.92
2017-01-30T10:42:12.161Z,954.85
2017-01-30T10:43:12.785Z,954.81
2017-01-30T10:44:13.663Z,954.81
2017-01-30T10:45:16.286Z,954.80
2017-01-30T10:46:13.132Z,954.82
2017-01-30T10:47:13.189Z,954.80
2017-01-30T10:48:13.089Z,954.75
2017-01-30T10:49:12.288Z,954.65
2017-01-30T10:50:13.180Z,954.58
2017-01-30T10:51:14.186Z,954.54
2017-01-30T10:52:12.225Z,954.44
2017-01-30T10:53:12.472Z,954.44
2017-01-30T10:54:12.489Z,954.43
2017-01-30T10:55:12.750Z,954.40
2017-01-30T10:56:13.581Z,954.38
2017-01-30T10:57:10.785Z,954.34
2017-01-30T10:58:12.911Z,954.39
2017-01-30T10:59:12.339Z,954.35
2017-01-30T11:00:16.304Z,954.36
2017-01-30T11:01:13.243Z,954.40
2017-01-30T11:02:14.138Z,954.42
2017-01-30T11:03:15.282Z,954.59
2017-01-30T11:04:12.943Z,954.84
2017-01-30T11:05:12.072Z,955.00
2017-01-30T11:06:13.964Z,955.06
2017-01-30T11:07:11.239Z,955.04
2017-01-30T11:08:12.564Z,954.83
2017-01-30T11:09:12.650Z,955.07
2017-01-30T11:10:13.124Z,955.13
2017-01-30T11:11:13.231Z,955.10
2017-01-30T11:12:13.456Z,955.00
2017-01-30T11:13:12.475Z,955.08
2017-01-30T11:14:15.172Z,955.08
2017-01-30T11:15:16.009Z,955.06
2017-01-30T11:16:12.951Z,954.97
2017-01-30T11:17:14.627Z,954.93
2017-01-30T11:18:13.462Z,955.03
2017-01-30T11:19:12.826Z,954.94
2017-01-30T11:20:12.341Z,954.85
2017-01-30T11:21:13.147Z,954.78
2017-01-30T11:22:12.830Z,954.76
2017-01-30T11:23:14.089Z,954.75
2017-01-30T11:24:12.109Z,954.75
2017-01-30T11:25:12.666Z,954.70
2017-01-30T11:26:13.561Z,954.69
2017-01-30T11:27:12.697Z,954.67
2017-01-30T11:28:12.837Z,954.61
2017-01-30T11:29:12.886Z,954.57
2017-01-30T11:30:13.066Z,954.59
2017-01-30T11:31:12.696Z,954.63
2017-01-30T11:32:16.199Z,954.60
2017-01-30T11:33:13.386Z,954.53
2017-01-30T11:34:13.671Z,954.49
2017-01-30T11:35:14.575Z,954.34
2017-01-30T11:36:12.691Z,954.33
2017-01-30T11:37:13.361Z,954.29
2017-01-30T11:38:12.653Z,954.27
2017-01-30T11:39:14.576Z,954.20
2017-01-30T11:40:13.436Z,954.18
2017-01-30T11:41:12.555Z,954.16
2017-01-30T11:42:14.441Z,954.13
2017-01-30T11:43:12.550Z,954.14
2017-01-30T11:44:12.711Z,954.08
2017-01-30T11:45:13.593Z,954.05
2017-01-30T11:46:12.690Z,954.07
2017-01-30T11:47:15.963Z,954.07
2017-01-30T11:48:12.709Z,954.03
2017-01-30T11:49:13.061Z,954.00
2017-01-30T11:50:12.857Z,953.95
2017-01-30T11:51:12.039Z,954.01
2017-01-30T11:52:12.661Z,954.04
2017-01-30T11:53:13.410Z,954.04
2017-01-30T11:54:14.103Z,954.04
2017-01-30T11:55:12.385Z,954.01
2017-01-30T11:56:13.112Z,954.01
2017-01-30T11:57:12.766Z,953.95
2017-01-30T11:58:12.494Z,953.92
2017-01-30T11:59:11.508Z,953.84
2017-01-30T12:00:13.259Z,953.78
2017-01-30T12:01:14.636Z,953.73
2017-01-30T12:02:15.964Z,953.73
2017-01-30T12:03:14.759Z,953.79
2017-01-30T12:04:12.577Z,953.83
2017-01-30T12:05:12.811Z,953.86
2017-01-30T12:06:11.952Z,953.90
2017-01-30T12:07:12.629Z,953.96
2017-01-30T12:08:13.254Z,954.00
2017-01-30T12:09:13.050Z,954.01
2017-01-30T12:10:13.360Z,954.01
2017-01-30T12:11:12.655Z,953.99
2017-01-30T12:12:14.125Z,953.98
2017-01-30T12:13:12.209Z,953.92
2017-01-30T12:14:12.628Z,953.90
2017-01-30T12:15:13.430Z,953.87
2017-01-30T12:16:13.616Z,953.78
2017-01-30T12:17:16.240Z,953.78
2017-01-30T12:18:12.992Z,953.76
2017-01-30T12:19:12.255Z,953.76
2017-01-30T12:20:13.015Z,953.70
2017-01-30T12:21:12.385Z,953.69
2017-01-30T12:22:13.239Z,953.65
2017-01-30T12:23:13.830Z,953.61
2017-01-30T12:24:13.592Z,953.57
2017-01-30T12:25:13.290Z,953.55
2017-01-30T12:26:12.483Z,953.57
2017-01-30T12:27:13.719Z,953.51
2017-01-30T12:28:14.006Z,953.48